createdAt,value
2023-05-10T00:00:28.612Z,24.31
2023-05-10T00:04:29.976Z,24.25
2023-05-10T00:08:31.290Z,24.08
2023-05-10T00:12:32.777Z,24.15
2023-05-10T00:16:34.414Z,24.16
2023-05-10T00:20:35.897Z,24.09
2023-05-10T00:24:37.190Z,23.93
2023-05-10T00:28:38.507Z,24.26
2023-05-10T00:32:39.828Z,24.27
2023-05-10T00:36:41.311Z,24.07
2023-05-10T00:40:42.784Z,24.27
2023-05-10T00:44:44.081Z,24.21
2023-05-10T00:48:46.257Z,24.29
2023-05-10T00:52:47.986Z,24.13
2023-05-10T00:56:50.244Z,24.32
2023-05-10T01:00:52.246Z,24.12
2023-05-10T01:04:53.669Z,24.26
2023-05-10T01:08:55.196Z,24.36
2023-05-10T01:12:57.011Z,24.21
2023-05-10T01:16:58.428Z,24.18
2023-05-10T01:21:20.277Z,24.41
2023-05-10T01:26:07.291Z,24.31
2023-05-10T01:30:22.352Z,24.41
2023-05-10T01:34:36.604Z,24.36
2023-05-10T01:38:51.519Z,24.51
2023-05-10T01:42:59.273Z,24.48
2023-05-10T01:47:18.005Z,24.33
2023-05-10T01:51:23.970Z,24.36
2023-05-10T01:55:29.478Z,24.50
2023-05-10T01:59:37.317Z,24.53
2023-05-10T02:03:40.903Z,24.33
2023-05-10T02:07:43.601Z,24.52
2023-05-10T02:11:45.191Z,24.49
2023-05-10T02:15:51.816Z,24.36
2023-05-10T02:19:56.090Z,24.40
2023-05-10T02:23:58.247Z,24.19
2023-05-10T02:28:02.488Z,24.10
2023-05-10T02:32:04.844Z,23.97
2023-05-10T02:36:08.979Z,24.09
2023-05-10T02:40:11.982Z,23.90
2023-05-10T02:44:16.224Z,23.97
2023-05-10T02:48:17.891Z,23.74
2023-05-10T02:52:24.257Z,23.89
2023-05-10T02:56:35.192Z,23.74
2023-05-10T03:00:37.185Z,23.60
2023-05-10T03:04:38.562Z,23.78
2023-05-10T03:08:41.187Z,23.68
2023-05-10T03:12:49.140Z,23.78
2023-05-10T03:17:05.110Z,23.80
2023-05-10T03:21:13.306Z,23.88
2023-05-10T03:25:17.430Z,24.05
2023-05-10T03:29:20.065Z,24.09
2023-05-10T03:33:21.924Z,24.08
2023-05-10T03:37:23.317Z,23.99
2023-05-10T03:41:26.007Z,23.99
2023-05-10T03:45:28.016Z,24.03
2023-05-10T03:49:29.641Z,24.14
2023-05-10T03:53:31.006Z,24.12
2023-05-10T03:57:32.273Z,24.05
2023-05-10T04:01:34.743Z,24.19
2023-05-10T04:05:36.720Z,24.22
2023-05-10T04:09:38.125Z,24.16
2023-05-10T04:13:39.495Z,24.17
2023-05-10T04:17:41.102Z,24.13
2023-05-10T04:21:42.493Z,23.90
2023-05-10T04:25:43.971Z,23.87
2023-05-10T04:29:45.344Z,23.87
2023-05-10T04:33:46.702Z,23.81
2023-05-10T04:37:48.033Z,24.03
2023-05-10T04:41:49.406Z,23.54
2023-05-10T04:45:51.141Z,23.84
2023-05-10T04:49:52.446Z,23.67
2023-05-10T04:54:05.199Z,23.85
2023-05-10T04:58:08.296Z,23.80
2023-05-10T05:02:09.656Z,23.83
2023-05-10T05:06:11.053Z,23.91
2023-05-10T05:10:12.412Z,24.04
2023-05-10T05:14:13.910Z,24.18
2023-05-10T05:18:15.247Z,23.88
2023-05-10T05:22:19.637Z,24.16
2023-05-10T05:26:21.140Z,24.18
2023-05-10T05:30:22.516Z,24.10
2023-05-10T05:34:25.084Z,23.88
2023-05-10T05:38:26.465Z,24.30
2023-05-10T05:42:27.956Z,24.28
2023-05-10T05:46:37.416Z,23.78
2023-05-10T05:50:38.712Z,24.23
2023-05-10T05:54:40.567Z,24.39
2023-05-10T05:58:41.888Z,24.40
2023-05-10T06:02:43.373Z,24.66
2023-05-10T06:06:45.029Z,24.66
2023-05-10T06:10:46.456Z,24.64
2023-05-10T06:14:47.960Z,24.54
2023-05-10T06:18:49.625Z,24.35
2023-05-10T06:22:51.053Z,24.44
2023-05-10T06:26:52.479Z,24.57
2023-05-10T06:30:53.767Z,24.43
2023-05-10T06:34:55.140Z,24.50
2023-05-10T06:38:56.433Z,24.34
2023-05-10T06:42:57.849Z,24.06
2023-05-10T06:46:59.200Z,24.52
2023-05-10T06:51:00.548Z,24.61
2023-05-10T06:55:02.634Z,24.65
2023-05-10T06:59:04.028Z,24.62
2023-05-10T07:03:05.460Z,24.44
2023-05-10T07:07:06.948Z,24.50
2023-05-10T07:11:11.604Z,24.36
2023-05-10T07:15:13.224Z,24.38
2023-05-10T07:19:14.561Z,24.62
2023-05-10T07:23:16.062Z,25.01
2023-05-10T07:27:17.391Z,25.32
2023-05-10T07:31:18.716Z,25.38
2023-05-10T07:35:20.150Z,25.34
2023-05-10T07:39:27.637Z,25.21
2023-05-10T07:43:29.267Z,24.86
2023-05-10T07:47:30.881Z,24.91
2023-05-10T07:51:32.632Z,25.29
2023-05-10T07:55:34.206Z,25.41
2023-05-10T07:59:35.488Z,25.44
2023-05-10T08:03:36.917Z,25.69
2023-05-10T08:07:38.299Z,25.45
2023-05-10T08:11:39.822Z,25.64
2023-05-10T08:15:41.217Z,25.46
2023-05-10T08:19:42.629Z,26.14
2023-05-10T08:23:44.979Z,26.05
2023-05-10T08:27:46.617Z,26.19
2023-05-10T08:31:47.968Z,26.41
2023-05-10T08:35:52.447Z,25.78
2023-05-10T08:39:53.814Z,25.97
2023-05-10T08:43:55.703Z,25.73
2023-05-10T08:47:57.371Z,25.68
2023-05-10T08:52:02.716Z,25.53
2023-05-10T08:56:04.602Z,25.81
2023-05-10T09:00:06.650Z,25.78
2023-05-10T09:04:08.039Z,25.62
2023-05-10T09:08:09.845Z,26.23
2023-05-10T09:12:12.541Z,26.85
2023-05-10T09:16:21.179Z,27.14
2023-05-10T09:20:23.489Z,27.01
2023-05-10T09:24:28.127Z,26.98
2023-05-10T09:28:33.016Z,27.41
2023-05-10T09:32:49.175Z,27.80
2023-05-10T09:36:59.527Z,26.13
2023-05-10T09:41:03.548Z,25.92
2023-05-10T09:45:05.980Z,26.00
2023-05-10T09:49:07.573Z,25.83
2023-05-10T09:53:08.892Z,25.47
2023-05-10T09:57:21.222Z,25.53
2023-05-10T10:01:27.279Z,25.98
2023-05-10T10:05:36.275Z,27.14
2023-05-10T10:09:37.549Z,27.83
2023-05-10T10:13:39.017Z,28.36
2023-05-10T10:17:41.547Z,27.23
2023-05-10T10:21:42.879Z,27.48
2023-05-10T10:25:45.708Z,27.71
2023-05-10T10:29:52.640Z,28.04
2023-05-10T10:34:26.991Z,28.87
2023-05-10T10:38:46.792Z,30.38
2023-05-10T10:42:50.683Z,30.28
2023-05-10T10:47:12.127Z,29.97
2023-05-10T10:51:14.538Z,29.09
2023-05-10T10:55:20.276Z,30.10
2023-05-10T10:59:28.869Z,31.34
2023-05-10T11:03:30.230Z,31.45
2023-05-10T11:07:32.134Z,30.61
2023-05-10T11:11:35.660Z,29.66
2023-05-10T11:15:41.226Z,30.02
2023-05-10T11:20:15.521Z,29.36
2023-05-10T11:24:21.899Z,30.03
2023-05-10T11:28:23.912Z,29.29
2023-05-10T11:32:25.510Z,28.77
2023-05-10T11:36:28.823Z,29.03
2023-05-10T11:40:30.175Z,28.96
2023-05-10T11:44:32.463Z,28.43
2023-05-10T11:48:34.167Z,28.09
2023-05-10T11:52:38.734Z,27.69
2023-05-10T11:56:40.974Z,27.89
2023-05-10T12:00:42.592Z,28.21
2023-05-10T12:04:43.977Z,28.45
2023-05-10T12:08:47.581Z,28.49
2023-05-10T12:12:49.098Z,28.51
2023-05-10T12:16:50.849Z,29.31
2023-05-10T12:20:55.435Z,29.21
2023-05-10T12:24:56.736Z,29.78
2023-05-10T12:29:18.890Z,30.33
2023-05-10T12:33:20.424Z,30.53
2023-05-10T12:37:25.351Z,30.39
2023-05-10T12:41:26.721Z,29.45
2023-05-10T12:45:28.085Z,30.09
2023-05-10T12:49:29.514Z,30.17
2023-05-10T12:53:30.910Z,30.67
2023-05-10T12:57:32.237Z,29.82
2023-05-10T13:01:33.560Z,30.32
2023-05-10T13:05:35.224Z,30.12
2023-05-10T13:09:36.667Z,30.57
2023-05-10T13:13:37.934Z,29.95
2023-05-10T13:17:41.636Z,29.94
2023-05-10T13:21:43.335Z,29.83
2023-05-10T13:25:44.611Z,29.15
2023-05-10T13:29:47.036Z,29.55
2023-05-10T13:33:49.968Z,29.45
2023-05-10T13:37:51.357Z,29.26
2023-05-10T13:41:53.863Z,29.73
2023-05-10T13:45:56.002Z,29.70
2023-05-10T13:49:58.314Z,29.97
2023-05-10T13:53:59.702Z,29.70
2023-05-10T13:58:01.096Z,30.14
2023-05-10T14:02:05.488Z,29.43
2023-05-10T14:06:08.358Z,30.24
2023-05-10T14:10:10.072Z,30.75
2023-05-10T14:14:11.461Z,30.54
2023-05-10T14:18:12.815Z,29.92
2023-05-10T14:22:14.188Z,30.33
2023-05-10T14:26:15.486Z,30.99
2023-05-10T14:30:16.830Z,30.46
2023-05-10T14:34:18.366Z,30.17
2023-05-10T14:38:19.727Z,30.57
2023-05-10T14:42:21.449Z,30.76
2023-05-10T14:46:22.832Z,30.33
2023-05-10T14:50:35.738Z,30.55
2023-05-10T14:54:38.592Z,30.43
2023-05-10T14:58:39.906Z,30.18
2023-05-10T15:02:41.357Z,30.57
2023-05-10T15:06:43.702Z,30.21
2023-05-10T15:10:45.071Z,29.93
2023-05-10T15:14:46.404Z,29.71
2023-05-10T15:18:48.044Z,29.74
2023-05-10T15:22:49.646Z,29.60
2023-05-10T15:26:50.933Z,29.41
2023-05-10T15:30:52.482Z,29.17
2023-05-10T15:34:53.863Z,29.97
2023-05-10T15:38:55.695Z,30.24
2023-05-10T15:42:56.996Z,30.53
2023-05-10T15:46:58.393Z,30.68
2023-05-10T15:50:59.851Z,30.14
2023-05-10T15:55:01.247Z,30.82
2023-05-10T15:59:03.722Z,30.36
2023-05-10T16:03:05.302Z,29.97
2023-05-10T16:07:06.792Z,29.96
2023-05-10T16:11:08.313Z,30.25
2023-05-10T16:15:10.392Z,30.08
2023-05-10T16:19:11.750Z,29.66
2023-05-10T16:23:14.091Z,29.48
2023-05-10T16:27:15.634Z,29.58
2023-05-10T16:31:18.703Z,29.49
2023-05-10T16:35:20.717Z,29.55
2023-05-10T16:39:22.049Z,29.43
2023-05-10T16:43:25.874Z,29.10
2023-05-10T16:47:27.516Z,29.23
2023-05-10T16:51:29.379Z,28.95
2023-05-10T16:55:30.799Z,28.90
2023-05-10T16:59:32.076Z,29.06
2023-05-10T17:03:33.978Z,29.33
2023-05-10T17:07:35.598Z,29.02
2023-05-10T17:11:36.984Z,29.07
2023-05-10T17:15:39.373Z,28.73
2023-05-10T17:19:44.674Z,28.96
2023-05-10T17:23:46.015Z,28.93
2023-05-10T17:27:47.333Z,28.97
2023-05-10T17:31:48.668Z,28.91
2023-05-10T17:35:50.439Z,27.67
2023-05-10T17:39:51.851Z,28.13
2023-05-10T17:43:53.960Z,27.89
2023-05-10T17:47:55.363Z,27.96
2023-05-10T17:51:56.761Z,27.78
2023-05-10T17:55:59.009Z,27.91
2023-05-10T18:00:02.159Z,27.43
2023-05-10T18:04:04.617Z,27.95
2023-05-10T18:08:07.139Z,27.54
2023-05-10T18:12:08.541Z,27.93
2023-05-10T18:16:12.579Z,27.89
2023-05-10T18:20:14.030Z,27.65
2023-05-10T18:24:16.863Z,27.57
2023-05-10T18:28:21.589Z,27.41
2023-05-10T18:32:23.721Z,26.85
2023-05-10T18:36:25.124Z,26.95
2023-05-10T18:40:27.219Z,26.43
2023-05-10T18:44:28.951Z,25.88
2023-05-10T18:48:30.255Z,25.63
2023-05-10T18:52:31.870Z,25.81
2023-05-10T18:56:33.545Z,25.89
2023-05-10T19:00:34.862Z,25.62
2023-05-10T19:04:36.177Z,25.61
2023-05-10T19:08:37.471Z,24.94
2023-05-10T19:12:41.085Z,24.72
2023-05-10T19:16:43.298Z,25.08
2023-05-10T19:20:44.698Z,24.40
2023-05-10T19:24:47.129Z,23.98
2023-05-10T19:28:50.801Z,23.97
2023-05-10T19:32:52.463Z,24.09
2023-05-10T19:36:54.388Z,24.44
2023-05-10T19:40:59.535Z,25.12
2023-05-10T19:45:01.044Z,24.67
2023-05-10T19:49:02.462Z,24.52
2023-05-10T19:53:03.820Z,24.92
2023-05-10T19:57:05.527Z,25.04
2023-05-10T20:01:07.694Z,25.21
2023-05-10T20:05:09.550Z,25.21
2023-05-10T20:09:10.899Z,24.38
2023-05-10T20:13:12.376Z,24.11
2023-05-10T20:17:13.659Z,23.30
2023-05-10T20:21:15.046Z,23.81
2023-05-10T20:25:18.064Z,23.57
2023-05-10T20:29:19.460Z,23.70
2023-05-10T20:33:25.385Z,24.18
2023-05-10T20:37:28.004Z,24.06
2023-05-10T20:41:29.451Z,24.58
2023-05-10T20:45:30.916Z,24.34
2023-05-10T20:49:32.362Z,23.52
2023-05-10T20:53:33.784Z,23.74
2023-05-10T20:57:35.284Z,23.72
2023-05-10T21:01:36.658Z,23.40
2023-05-10T21:05:38.160Z,23.75
2023-05-10T21:09:39.558Z,23.77
2023-05-10T21:13:40.898Z,23.91
2023-05-10T21:17:42.248Z,22.97
2023-05-10T21:21:43.596Z,23.64
2023-05-10T21:25:44.978Z,23.61
2023-05-10T21:29:46.500Z,24.31
2023-05-10T21:33:47.903Z,24.17
2023-05-10T21:37:49.368Z,24.56
2023-05-10T21:41:50.968Z,24.79
2023-05-10T21:45:52.366Z,23.97
2023-05-10T21:49:53.736Z,24.35
2023-05-10T21:53:55.095Z,23.87
2023-05-10T21:57:57.603Z,24.25
2023-05-10T22:01:59.066Z,24.68
2023-05-10T22:06:00.605Z,24.78
2023-05-10T22:10:01.986Z,24.55
2023-05-10T22:14:03.313Z,24.66
2023-05-10T22:18:04.848Z,24.05
2023-05-10T22:22:06.259Z,23.99
2023-05-10T22:26:07.516Z,24.44
2023-05-10T22:30:09.332Z,24.36
2023-05-10T22:34:10.806Z,24.36
2023-05-10T22:38:12.760Z,23.91
2023-05-10T22:42:14.122Z,24.19
2023-05-10T22:46:15.853Z,24.11
2023-05-10T22:50:18.493Z,24.09
2023-05-10T22:54:20.052Z,24.10
2023-05-10T22:58:21.436Z,24.12
2023-05-10T23:02:22.774Z,24.26
2023-05-10T23:06:24.093Z,24.09
2023-05-10T23:10:25.407Z,24.01
2023-05-10T23:14:26.781Z,24.33
2023-05-10T23:18:28.127Z,24.58
2023-05-10T23:22:29.584Z,24.48
2023-05-10T23:26:30.875Z,24.60
2023-05-10T23:30:32.236Z,24.45
2023-05-10T23:34:33.596Z,24.29
2023-05-10T23:38:34.907Z,23.82
2023-05-10T23:42:36.217Z,24.29
2023-05-10T23:46:37.675Z,23.99
2023-05-10T23:50:44.442Z,23.52
2023-05-10T23:54:46.065Z,23.56
2023-05-10T23:58:47.479Z,23.62
